createdAt,value
2023-02-25T00:01:13.116Z,9.10
2023-02-25T00:03:41.085Z,8.70
2023-02-25T00:06:13.344Z,8.90
2023-02-25T00:08:44.373Z,8.80
2023-02-25T00:11:12.615Z,8.80
2023-02-25T00:13:41.614Z,8.60
2023-02-25T00:16:09.378Z,8.40
2023-02-25T00:18:36.824Z,8.40
2023-02-25T00:21:09.543Z,8.30
2023-02-25T00:23:36.507Z,8.30
2023-02-25T00:26:09.004Z,7.90
2023-02-25T00:28:36.113Z,7.80
2023-02-25T00:31:16.046Z,8.00
2023-02-25T00:33:43.484Z,8.20
2023-02-25T00:36:21.636Z,7.80
2023-02-25T00:38:50.579Z,7.60
2023-02-25T00:41:22.261Z,7.90
2023-02-25T00:44:01.383Z,7.70
2023-02-25T00:46:31.032Z,8.00
2023-02-25T00:48:59.015Z,7.90
2023-02-25T00:51:30.104Z,8.50
2023-02-25T00:53:57.485Z,7.90
2023-02-25T00:56:26.056Z,7.90
2023-02-25T00:58:53.397Z,7.60
2023-02-25T01:01:28.441Z,8.00
2023-02-25T01:03:56.943Z,7.90
2023-02-25T01:06:27.433Z,7.90
2023-02-25T01:08:54.958Z,8.10
2023-02-25T01:11:30.183Z,8.00
2023-02-25T01:14:04.165Z,8.50
2023-02-25T01:16:33.856Z,8.30
2023-02-25T01:19:05.641Z,7.80
2023-02-25T01:21:36.498Z,7.90
2023-02-25T01:24:08.031Z,7.90
2023-02-25T01:26:37.985Z,8.00
2023-02-25T01:29:20.911Z,8.50
2023-02-25T01:31:48.010Z,9.00
2023-02-25T01:34:17.566Z,9.20
2023-02-25T01:36:45.832Z,9.10
2023-02-25T01:39:14.759Z,9.00
2023-02-25T01:41:42.510Z,8.80
2023-02-25T01:44:21.354Z,9.10
2023-02-25T01:46:54.981Z,7.90
2023-02-25T01:49:45.035Z,7.70
2023-02-25T01:52:19.332Z,7.90
2023-02-25T01:54:54.191Z,7.90
2023-02-25T01:57:21.974Z,7.80
2023-02-25T01:59:50.644Z,7.60
2023-02-25T02:02:21.556Z,7.30
2023-02-25T02:04:52.422Z,7.60
2023-02-25T02:07:21.841Z,8.00
2023-02-25T02:09:57.491Z,7.90
2023-02-25T02:12:38.499Z,8.20
2023-02-25T02:15:11.474Z,7.90
2023-02-25T02:17:59.712Z,7.70
2023-02-25T02:20:43.095Z,7.80
2023-02-25T02:23:32.355Z,7.60
2023-02-25T02:26:46.271Z,7.70
2023-02-25T02:29:48.978Z,8.00
2023-02-25T02:32:34.028Z,8.00
2023-02-25T02:35:29.542Z,7.80
2023-02-25T02:38:12.271Z,7.70
2023-02-25T02:41:15.055Z,7.40
2023-02-25T02:44:13.958Z,7.50
2023-02-25T02:47:38.660Z,7.20
2023-02-25T02:50:24.764Z,7.60
2023-02-25T02:52:56.067Z,7.70
2023-02-25T02:55:30.398Z,7.80
2023-02-25T02:58:09.532Z,7.40
2023-02-25T03:00:41.422Z,7.40
2023-02-25T03:03:20.117Z,7.90
2023-02-25T03:05:51.225Z,8.10
2023-02-25T03:08:29.072Z,7.80
2023-02-25T03:10:56.338Z,7.60
2023-02-25T03:13:23.182Z,7.70
2023-02-25T03:15:51.890Z,7.90
2023-02-25T03:18:27.586Z,8.10
2023-02-25T03:20:57.546Z,8.20
2023-02-25T03:23:31.439Z,8.60
2023-02-25T03:26:14.014Z,8.30
2023-02-25T03:28:45.374Z,8.20
2023-02-25T03:31:32.850Z,8.20
2023-02-25T03:34:17.912Z,8.30
2023-02-25T03:36:51.312Z,8.40
2023-02-25T03:39:28.268Z,8.00
2023-02-25T03:41:59.454Z,8.30
2023-02-25T03:44:34.613Z,8.00
2023-02-25T03:47:03.898Z,8.50
2023-02-25T03:49:43.835Z,8.30
2023-02-25T03:52:18.098Z,8.60
2023-02-25T03:54:51.330Z,8.50
2023-02-25T03:57:19.432Z,8.10
2023-02-25T03:59:46.217Z,8.70
2023-02-25T04:02:15.807Z,8.20
2023-02-25T04:04:42.816Z,8.00
2023-02-25T04:07:09.581Z,8.10
2023-02-25T04:09:36.331Z,7.90
2023-02-25T04:12:03.640Z,7.90
2023-02-25T04:14:30.452Z,8.20
2023-02-25T04:16:57.205Z,8.10
2023-02-25T04:19:23.999Z,8.10
2023-02-25T04:21:50.776Z,7.90
2023-02-25T04:24:17.721Z,7.80
2023-02-25T04:26:44.552Z,7.90
2023-02-25T04:29:11.337Z,8.00
2023-02-25T04:31:38.298Z,8.00
2023-02-25T04:34:05.229Z,7.60
2023-02-25T04:36:35.423Z,7.70
2023-02-25T04:39:05.922Z,7.80
2023-02-25T04:41:35.505Z,7.80
2023-02-25T04:44:06.650Z,8.00
2023-02-25T04:46:37.003Z,8.20
2023-02-25T04:49:05.014Z,7.80
2023-02-25T04:51:31.981Z,7.80
2023-02-25T04:53:58.809Z,8.00
2023-02-25T04:56:26.145Z,7.90
2023-02-25T04:58:53.950Z,7.30
2023-02-25T05:01:20.890Z,7.40
2023-02-25T05:03:47.734Z,7.20
2023-02-25T05:06:14.489Z,7.60
2023-02-25T05:08:41.268Z,7.50
2023-02-25T05:11:08.093Z,7.30
2023-02-25T05:13:34.912Z,7.20
2023-02-25T05:16:11.118Z,7.10
2023-02-25T05:18:40.321Z,6.90
2023-02-25T05:21:18.878Z,6.70
2023-02-25T05:23:47.863Z,6.90
2023-02-25T05:26:16.520Z,6.90
2023-02-25T05:28:46.090Z,6.80
2023-02-25T05:31:13.319Z,6.90
2023-02-25T05:33:40.903Z,7.10
2023-02-25T05:36:10.051Z,6.80
2023-02-25T05:38:37.330Z,6.80
2023-02-25T05:41:08.230Z,6.70
2023-02-25T05:43:35.919Z,6.60
2023-02-25T05:46:04.701Z,6.90
2023-02-25T05:48:32.651Z,6.60
2023-02-25T05:51:03.105Z,6.70
2023-02-25T05:53:30.105Z,6.50
2023-02-25T05:55:56.870Z,6.60
2023-02-25T05:58:24.198Z,6.50
2023-02-25T06:00:51.480Z,6.60
2023-02-25T06:03:18.553Z,6.50
2023-02-25T06:05:47.819Z,6.20
2023-02-25T06:08:14.835Z,6.20
2023-02-25T06:10:41.838Z,6.20
2023-02-25T06:13:10.014Z,6.20
2023-02-25T06:15:41.056Z,6.00
2023-02-25T06:18:08.776Z,5.90
2023-02-25T06:20:35.793Z,6.20
2023-02-25T06:23:03.529Z,6.40
2023-02-25T06:25:31.222Z,6.70
2023-02-25T06:28:02.710Z,6.60
2023-02-25T06:30:30.622Z,6.60
2023-02-25T06:32:58.526Z,6.60
2023-02-25T06:35:25.454Z,5.90
2023-02-25T06:38:00.107Z,5.70
2023-02-25T06:40:28.663Z,6.00
2023-02-25T06:42:55.458Z,6.10
2023-02-25T06:45:23.465Z,6.30
2023-02-25T06:47:50.252Z,6.70
2023-02-25T06:50:17.541Z,6.60
2023-02-25T06:52:44.516Z,6.40
2023-02-25T06:55:11.388Z,6.30
2023-02-25T06:57:38.167Z,6.70
2023-02-25T07:00:06.477Z,6.90
2023-02-25T07:02:33.481Z,7.10
2023-02-25T07:05:01.334Z,7.20
2023-02-25T07:07:28.642Z,7.30
2023-02-25T07:09:55.422Z,7.40
2023-02-25T07:12:22.189Z,7.70
2023-02-25T07:14:49.692Z,7.80
2023-02-25T07:17:16.549Z,7.80
2023-02-25T07:19:43.329Z,7.80
2023-02-25T07:22:16.164Z,7.90
2023-02-25T07:24:43.419Z,7.80
2023-02-25T07:27:10.608Z,7.60
2023-02-25T07:29:37.394Z,7.60
2023-02-25T07:32:04.496Z,7.50
2023-02-25T07:34:31.366Z,7.40
2023-02-25T07:36:58.184Z,7.40
2023-02-25T07:39:25.018Z,7.40
2023-02-25T07:41:51.829Z,6.80
2023-02-25T07:44:18.568Z,6.90
2023-02-25T07:46:45.355Z,7.30
2023-02-25T07:49:12.226Z,7.30
2023-02-25T07:51:39.005Z,7.70
2023-02-25T07:54:05.912Z,7.70
2023-02-25T07:56:32.751Z,7.40
2023-02-25T07:59:00.125Z,7.40
2023-02-25T08:01:34.824Z,7.40
2023-02-25T08:04:04.691Z,7.50
2023-02-25T08:06:35.564Z,7.60
2023-02-25T08:09:02.384Z,7.20
2023-02-25T08:11:29.177Z,7.50
2023-02-25T08:13:55.964Z,8.10
2023-02-25T08:16:23.238Z,7.60
2023-02-25T08:18:50.169Z,7.40
2023-02-25T08:21:21.730Z,7.20
2023-02-25T08:23:49.189Z,7.10
2023-02-25T08:26:22.265Z,7.70
2023-02-25T08:28:50.286Z,7.60
2023-02-25T08:31:18.745Z,7.60
2023-02-25T08:33:52.769Z,7.40
2023-02-25T08:36:24.391Z,7.80
2023-02-25T08:38:51.875Z,7.60
2023-02-25T08:41:20.826Z,7.80
2023-02-25T08:43:56.685Z,7.40
2023-02-25T08:46:26.916Z,7.10
2023-02-25T08:48:54.836Z,7.30
2023-02-25T08:51:24.460Z,7.20
2023-02-25T08:53:52.242Z,7.10
2023-02-25T08:56:19.214Z,7.20
2023-02-25T08:58:46.147Z,7.40
2023-02-25T09:01:16.564Z,7.50
2023-02-25T09:03:53.391Z,7.60
2023-02-25T09:06:24.600Z,7.40
2023-02-25T09:08:52.874Z,7.30
2023-02-25T09:11:20.810Z,7.10
2023-02-25T09:13:48.036Z,6.90
2023-02-25T09:16:20.014Z,7.60
2023-02-25T09:18:48.368Z,7.90
2023-02-25T09:21:15.992Z,7.40
2023-02-25T09:23:43.655Z,7.70
2023-02-25T09:26:10.962Z,7.60
2023-02-25T09:28:37.738Z,7.60
2023-02-25T09:31:04.964Z,7.50
2023-02-25T09:33:33.172Z,7.60
2023-02-25T09:36:18.135Z,8.00
2023-02-25T09:38:47.114Z,8.30
2023-02-25T09:41:35.768Z,8.40
2023-02-25T09:44:11.862Z,9.30
2023-02-25T09:46:47.491Z,8.20
2023-02-25T09:49:58.275Z,7.70
2023-02-25T09:52:45.898Z,7.60
2023-02-25T09:55:38.290Z,7.80
2023-02-25T09:58:36.496Z,7.80
2023-02-25T10:01:11.048Z,7.70
2023-02-25T10:04:08.348Z,8.00
2023-02-25T10:06:47.042Z,7.60
2023-02-25T10:09:31.360Z,7.60
2023-02-25T10:12:21.047Z,8.00
2023-02-25T10:14:56.986Z,8.50
2023-02-25T10:17:46.491Z,8.80
2023-02-25T10:20:51.025Z,9.40
2023-02-25T10:23:38.037Z,9.50
2023-02-25T10:26:17.873Z,9.20
2023-02-25T10:29:00.533Z,8.60
2023-02-25T10:31:30.499Z,9.30
2023-02-25T10:34:08.939Z,8.70
2023-02-25T10:36:43.994Z,9.10
2023-02-25T10:39:11.474Z,9.30
2023-02-25T10:41:38.373Z,9.00
2023-02-25T10:44:05.126Z,8.40
2023-02-25T10:46:44.746Z,8.10
2023-02-25T10:49:22.942Z,8.10
2023-02-25T10:52:17.937Z,8.40
2023-02-25T10:54:52.945Z,8.40
2023-02-25T10:57:41.867Z,8.30
2023-02-25T11:00:32.728Z,8.00
2023-02-25T11:03:01.716Z,8.50
2023-02-25T11:05:43.590Z,8.70
2023-02-25T11:08:37.123Z,8.70
2023-02-25T11:11:18.139Z,8.40
2023-02-25T11:13:45.392Z,8.90
2023-02-25T11:16:14.606Z,9.20
2023-02-25T11:18:41.991Z,9.70
2023-02-25T11:21:13.468Z,8.50
2023-02-25T11:23:43.146Z,9.00
2023-02-25T11:26:17.287Z,9.10
2023-02-25T11:28:49.468Z,8.70
2023-02-25T11:31:25.921Z,7.90
2023-02-25T11:34:03.660Z,7.80
2023-02-25T11:36:37.559Z,8.20
2023-02-25T11:39:22.150Z,8.00
2023-02-25T11:42:00.254Z,8.20
2023-02-25T11:44:41.982Z,8.10
2023-02-25T11:47:25.926Z,7.70
2023-02-25T11:50:05.213Z,8.10
2023-02-25T11:55:19.334Z,7.50
2023-02-25T11:58:06.379Z,7.80
2023-02-25T12:00:41.398Z,7.50
2023-02-25T12:03:50.295Z,7.20
2023-02-25T12:06:41.646Z,7.40
2023-02-25T12:09:38.240Z,7.50
2023-02-25T12:12:29.763Z,7.30
2023-02-25T12:15:26.921Z,7.20
2023-02-25T12:18:22.560Z,7.20
2023-02-25T12:21:45.798Z,6.90
2023-02-25T12:24:40.586Z,7.00
2023-02-25T12:27:53.727Z,6.50
2023-02-25T12:30:45.462Z,6.90
2023-02-25T12:33:46.867Z,7.00
2023-02-25T12:36:59.482Z,6.90
2023-02-25T12:39:58.354Z,7.80
2023-02-25T12:42:51.120Z,7.30
2023-02-25T12:46:15.586Z,7.40
2023-02-25T12:49:21.823Z,7.50
2023-02-25T12:52:17.624Z,7.60
2023-02-25T12:55:10.124Z,7.80
2023-02-25T12:58:03.759Z,7.80
2023-02-25T13:01:13.415Z,8.10
2023-02-25T13:04:03.558Z,7.80
2023-02-25T13:06:59.266Z,7.90
2023-02-25T13:10:13.289Z,8.10
2023-02-25T13:13:07.601Z,8.00
2023-02-25T13:16:27.947Z,7.90
2023-02-25T13:19:34.577Z,7.80
2023-02-25T13:22:46.610Z,8.00
2023-02-25T13:25:51.655Z,7.60
2023-02-25T13:28:42.454Z,7.60
2023-02-25T13:32:06.154Z,7.60
2023-02-25T13:35:24.076Z,7.60
2023-02-25T13:38:04.610Z,8.20
2023-02-25T13:40:51.878Z,8.20
2023-02-25T13:43:32.581Z,8.60
2023-02-25T13:46:46.716Z,8.10
2023-02-25T13:49:35.019Z,8.00
2023-02-25T13:52:30.045Z,7.80
2023-02-25T13:55:20.218Z,7.70
2023-02-25T13:58:13.709Z,7.60
2023-02-25T14:00:54.113Z,7.70
2023-02-25T14:04:07.339Z,7.70
2023-02-25T14:07:18.924Z,7.40
2023-02-25T14:10:22.958Z,7.60
2023-02-25T14:13:11.173Z,7.40
2023-02-25T14:16:04.923Z,7.50
2023-02-25T14:18:50.702Z,7.30
2023-02-25T14:21:41.852Z,7.60
2023-02-25T14:24:42.283Z,7.60
2023-02-25T14:27:31.900Z,7.80
2023-02-25T14:30:41.577Z,8.00
2023-02-25T14:33:42.368Z,7.70
2023-02-25T14:36:20.527Z,7.60
2023-02-25T14:39:15.832Z,8.10
2023-02-25T14:42:08.367Z,8.30
2023-02-25T14:44:53.468Z,8.20
2023-02-25T14:47:33.335Z,8.00
2023-02-25T14:50:59.562Z,7.80
2023-02-25T14:53:59.279Z,7.70
2023-02-25T14:56:54.158Z,8.00
2023-02-25T15:00:04.977Z,8.30
2023-02-25T15:03:10.533Z,8.30
2023-02-25T15:05:49.131Z,8.20
2023-02-25T15:08:43.081Z,8.10
2023-02-25T15:11:37.238Z,8.40
2023-02-25T15:14:30.006Z,8.30
2023-02-25T15:17:53.051Z,8.20
2023-02-25T15:20:39.965Z,8.10
2023-02-25T15:23:14.489Z,7.90
2023-02-25T15:25:46.032Z,8.50
2023-02-25T15:28:31.157Z,8.60
2023-02-25T15:31:00.907Z,8.50
2023-02-25T15:33:36.749Z,8.50
2023-02-25T15:36:15.695Z,9.00
2023-02-25T15:38:53.038Z,8.50
2023-02-25T15:41:28.713Z,8.70
2023-02-25T15:44:21.510Z,8.40
2023-02-25T15:46:49.734Z,9.00
2023-02-25T15:49:28.422Z,8.80
2023-02-25T15:52:04.195Z,8.60
2023-02-25T15:54:31.250Z,8.80
2023-02-25T15:57:24.482Z,8.70
2023-02-25T15:59:57.521Z,9.10
2023-02-25T16:02:29.984Z,9.30
2023-02-25T16:05:04.066Z,9.10
2023-02-25T16:07:36.067Z,9.00
2023-02-25T16:10:18.386Z,8.90
2023-02-25T16:12:49.479Z,9.00
2023-02-25T16:15:40.760Z,9.10
2023-02-25T16:18:31.455Z,8.80
2023-02-25T16:21:18.095Z,8.90
2023-02-25T16:23:44.977Z,8.90
2023-02-25T16:26:23.594Z,9.10
2023-02-25T16:28:59.173Z,9.40
2023-02-25T16:31:50.008Z,9.20
2023-02-25T16:34:26.337Z,9.30
2023-02-25T16:37:09.312Z,8.70
2023-02-25T16:39:37.558Z,9.20
2023-02-25T16:42:15.796Z,9.30
2023-02-25T16:44:52.855Z,9.00
2023-02-25T16:47:39.096Z,8.30
2023-02-25T16:50:14.002Z,8.80
2023-02-25T16:52:48.337Z,8.80
2023-02-25T16:55:31.643Z,8.80
2023-02-25T16:58:21.394Z,8.80
2023-02-25T17:00:55.411Z,8.70
2023-02-25T17:03:25.238Z,8.80
2023-02-25T17:06:17.674Z,8.90
2023-02-25T17:08:48.480Z,8.80
2023-02-25T17:11:22.496Z,9.00
2023-02-25T17:13:53.086Z,8.80
2023-02-25T17:16:38.069Z,8.80
2023-02-25T17:19:10.517Z,8.90
2023-02-25T17:21:41.968Z,8.80
2023-02-25T17:24:13.914Z,9.10
2023-02-25T17:26:43.434Z,9.10
2023-02-25T17:29:13.911Z,9.10
2023-02-25T17:31:54.516Z,9.00
2023-02-25T17:34:35.117Z,8.90
2023-02-25T17:37:06.569Z,8.60
2023-02-25T17:39:33.439Z,8.50
2023-02-25T17:42:00.399Z,8.30
2023-02-25T17:44:39.130Z,7.70
2023-02-25T17:47:09.763Z,7.40
2023-02-25T17:49:37.783Z,7.20
2023-02-25T17:52:07.966Z,7.20
2023-02-25T17:54:37.374Z,7.00
2023-02-25T17:57:14.921Z,6.70
2023-02-25T17:59:48.227Z,6.50
2023-02-25T18:02:36.015Z,6.20
2023-02-25T18:05:12.185Z,6.00
2023-02-25T18:08:09.521Z,6.10
2023-02-25T18:10:36.177Z,6.00
2023-02-25T18:13:05.114Z,6.00
2023-02-25T18:15:34.100Z,6.10
2023-02-25T18:18:04.554Z,6.30
2023-02-25T18:20:42.198Z,6.40
2023-02-25T18:23:24.503Z,6.10
2023-02-25T18:26:11.840Z,6.40
2023-02-25T18:28:39.012Z,6.30
2023-02-25T18:31:06.244Z,6.40
2023-02-25T18:33:33.052Z,6.50
2023-02-25T18:36:00.310Z,6.10
2023-02-25T18:38:29.769Z,6.20
2023-02-25T18:40:56.596Z,6.30
2023-02-25T18:43:34.320Z,6.30
2023-02-25T18:46:01.746Z,6.60
2023-02-25T18:48:28.851Z,6.60
2023-02-25T18:50:56.369Z,6.60
2023-02-25T18:53:25.921Z,6.80
2023-02-25T18:55:56.035Z,7.20
2023-02-25T18:58:24.771Z,6.90
2023-02-25T19:00:57.598Z,7.00
2023-02-25T19:03:37.660Z,7.60
2023-02-25T19:06:05.232Z,7.80
2023-02-25T19:08:32.090Z,7.60
2023-02-25T19:10:59.012Z,7.40
2023-02-25T19:13:42.705Z,6.60
2023-02-25T19:16:09.923Z,6.80
2023-02-25T19:18:37.627Z,7.00
2023-02-25T19:21:06.634Z,7.30
2023-02-25T19:23:33.431Z,7.60
2023-02-25T19:26:01.315Z,7.50
2023-02-25T19:28:28.244Z,7.80
2023-02-25T19:30:55.548Z,9.30
2023-02-25T19:33:22.355Z,9.00
2023-02-25T19:35:49.345Z,8.60
2023-02-25T19:38:19.781Z,8.20
2023-02-25T19:40:47.767Z,7.90
2023-02-25T19:43:18.079Z,7.70
2023-02-25T19:45:44.927Z,7.40
2023-02-25T19:48:11.707Z,8.30
2023-02-25T19:50:41.507Z,8.20
2023-02-25T19:53:08.532Z,7.50
2023-02-25T19:55:35.512Z,7.10
2023-02-25T19:58:02.337Z,6.90
2023-02-25T20:00:29.122Z,7.40
2023-02-25T20:02:56.236Z,6.60
2023-02-25T20:05:24.222Z,5.80
2023-02-25T20:07:51.573Z,6.40
2023-02-25T20:10:21.729Z,6.70
2023-02-25T20:12:48.682Z,6.60
2023-02-25T20:15:16.201Z,6.70
2023-02-25T20:17:45.157Z,7.10
2023-02-25T20:20:13.923Z,7.20
2023-02-25T20:22:41.191Z,7.30
2023-02-25T20:25:10.267Z,6.60
2023-02-25T20:27:39.636Z,6.90
2023-02-25T20:30:07.737Z,6.70
2023-02-25T20:32:34.812Z,6.60
2023-02-25T20:35:02.214Z,6.20
2023-02-25T20:37:37.274Z,5.80
2023-02-25T20:40:08.052Z,5.60
2023-02-25T20:42:35.074Z,5.90
2023-02-25T20:45:02.461Z,6.10
2023-02-25T20:47:37.442Z,6.00
2023-02-25T20:50:06.671Z,6.00
2023-02-25T20:52:34.177Z,6.20
2023-02-25T20:55:01.001Z,6.50
2023-02-25T20:57:27.807Z,6.30
2023-02-25T20:59:54.866Z,6.30
2023-02-25T21:02:22.227Z,6.40
2023-02-25T21:04:50.483Z,6.10
2023-02-25T21:07:17.322Z,6.40
2023-02-25T21:09:44.116Z,6.40
2023-02-25T21:12:11.224Z,6.30
2023-02-25T21:14:38.003Z,6.10
2023-02-25T21:17:09.267Z,5.90
2023-02-25T21:19:38.604Z,5.90
2023-02-25T21:22:06.958Z,6.10
2023-02-25T21:24:34.547Z,6.00
2023-02-25T21:27:01.850Z,6.40
2023-02-25T21:29:28.765Z,6.00
2023-02-25T21:31:55.604Z,5.90
2023-02-25T21:34:22.490Z,5.90
2023-02-25T21:36:49.225Z,6.10
2023-02-25T21:39:16.072Z,6.00
2023-02-25T21:41:44.786Z,6.20
2023-02-25T21:44:12.556Z,6.40
2023-02-25T21:46:40.103Z,6.20
2023-02-25T21:49:07.022Z,6.20
2023-02-25T21:51:33.980Z,5.90
2023-02-25T21:54:01.871Z,6.20
2023-02-25T21:56:30.823Z,6.10
2023-02-25T21:59:01.300Z,5.70
2023-02-25T22:01:35.221Z,5.80
2023-02-25T22:04:02.476Z,5.70
2023-02-25T22:06:29.751Z,5.50
2023-02-25T22:08:57.510Z,5.60
2023-02-25T22:11:31.871Z,5.40
2023-02-25T22:14:02.176Z,5.70
2023-02-25T22:16:29.683Z,5.60
2023-02-25T22:18:56.890Z,5.40
2023-02-25T22:21:29.636Z,5.00
2023-02-25T22:24:00.257Z,5.40
2023-02-25T22:26:31.544Z,5.00
2023-02-25T22:29:01.969Z,5.10
2023-02-25T22:31:29.310Z,5.20
2023-02-25T22:33:57.373Z,5.30
2023-02-25T22:36:24.789Z,5.10
2023-02-25T22:38:52.290Z,5.30
2023-02-25T22:41:22.914Z,5.30
2023-02-25T22:43:50.264Z,5.10
2023-02-25T22:46:21.515Z,5.40
2023-02-25T22:48:49.977Z,5.10
2023-02-25T22:51:42.561Z,5.00
2023-02-25T22:54:12.461Z,4.60
2023-02-25T22:56:39.620Z,4.90
2023-02-25T22:59:07.572Z,5.00
2023-02-25T23:01:34.831Z,5.20
2023-02-25T23:04:02.131Z,4.80
2023-02-25T23:06:42.868Z,5.00
2023-02-25T23:09:10.291Z,4.10
2023-02-25T23:11:40.113Z,4.10
2023-02-25T23:14:06.857Z,4.80
2023-02-25T23:16:44.597Z,4.30
2023-02-25T23:19:16.502Z,4.60
2023-02-25T23:21:43.577Z,4.50
2023-02-25T23:24:16.359Z,4.70
2023-02-25T23:26:45.170Z,4.90
2023-02-25T23:29:12.940Z,4.40
2023-02-25T23:31:46.789Z,4.60
2023-02-25T23:34:23.119Z,5.10
2023-02-25T23:36:50.350Z,4.60
2023-02-25T23:39:17.438Z,4.70
2023-02-25T23:41:44.290Z,4.80
2023-02-25T23:44:13.134Z,4.80
2023-02-25T23:46:44.940Z,3.70
2023-02-25T23:49:14.831Z,4.60
2023-02-25T23:51:45.117Z,3.90
2023-02-25T23:54:15.419Z,3.70
2023-02-25T23:56:42.301Z,4.10
2023-02-25T23:59:10.410Z,3.70
